Time;durP1;ratioP1;P1;durP2;ratioP2;P2;SDS_P1;SDS_P2;PMS_P1;PMS_P2;Temp;Humidity;BMP_temperature;BMP_pressure;BME280_temperature;BME280_humidity;BME280_pressure;Samples;Min_cycle;Max_cycle;Signal;HPM_P1;HPM_P2
2021/12/28 00:00:06;;;;;;;49.70;33.00;;;;;;;;;;4974063;28;20188;-64
2021/12/28 00:02:33;;;;;;;46.70;30.88;;;;;;;;;;4982998;28;20045;-63
2021/12/28 00:04:59;;;;;;;46.65;28.85;;;;;;;;;;4996390;28;20489;-63
2021/12/28 00:07:25;;;;;;;43.65;30.70;;;;;;;;;;4957278;28;20408;-63
2021/12/28 00:09:51;;;;;;;37.72;28.63;;;;;;;;;;4990825;28;20661;-63
2021/12/28 00:12:17;;;;;;;41.85;29.10;;;;;;;;;;4989942;28;20113;-63
2021/12/28 00:14:51;;;;;;;41.35;29.70;;;;;;;;;;4973636;28;20041;-64
2021/12/28 00:20:02;;;;;;;37.47;27.73;;;;;;;;;;4989339;28;20047;-64
2021/12/28 00:22:28;;;;;;;35.88;26.15;;;;;;;;;;4990202;28;20468;-63
2021/12/28 00:24:54;;;;;;;37.10;27.88;;;;;;;;;;4987979;28;20062;-63
2021/12/28 00:27:20;;;;;;;32.25;25.75;;;;;;;;;;4989548;28;20080;-65
2021/12/28 00:29:46;;;;;;;30.70;23.27;;;;;;;;;;4989166;28;20476;-64
2021/12/28 00:32:12;;;;;;;32.88;24.33;;;;;;;;;;4989910;28;20040;-63
2021/12/28 00:34:38;;;;;;;34.60;25.77;;;;;;;;;;4988726;28;20045;-63
2021/12/28 00:37:04;;;;;;;27.95;20.90;;;;;;;;;;4988514;28;20120;-63
2021/12/28 00:39:30;;;;;;;33.10;26.05;;;;;;;;;;4988054;28;20042;-63
2021/12/28 00:41:57;;;;;;;32.40;25.40;;;;;;;;;;4988047;28;20087;-63
2021/12/28 00:44:23;;;;;;;31.80;24.95;;;;;;;;;;4990052;28;20046;-64
2021/12/28 00:46:49;;;;;;;34.45;26.20;;;;;;;;;;4988072;28;20093;-65
2021/12/28 00:49:15;;;;;;;32.45;25.35;;;;;;;;;;4989495;28;20042;-64
2021/12/28 00:51:41;;;;;;;31.80;24.50;;;;;;;;;;4988286;28;20302;-63
2021/12/28 00:54:07;;;;;;;26.00;19.40;;;;;;;;;;4988718;28;20026;-63
2021/12/28 00:56:33;;;;;;;31.50;24.27;;;;;;;;;;4988713;28;20116;-63
2021/12/28 00:58:59;;;;;;;32.63;25.35;;;;;;;;;;4989781;28;20030;-63
2021/12/28 01:01:25;;;;;;;31.67;25.05;;;;;;;;;;4988523;28;21652;-64
2021/12/28 01:03:52;;;;;;;30.23;22.38;;;;;;;;;;4988054;28;20097;-63
2021/12/28 01:06:18;;;;;;;33.53;25.52;;;;;;;;;;4987422;28;20455;-63
2021/12/28 01:08:44;;;;;;;22.42;15.15;;;;;;;;;;4987607;28;20393;-63
2021/12/28 01:11:10;;;;;;;27.58;20.60;;;;;;;;;;4971355;28;20031;-63
2021/12/28 01:13:36;;;;;;;31.60;24.40;;;;;;;;;;4989458;28;20042;-63
2021/12/28 01:16:02;;;;;;;33.47;24.50;;;;;;;;;;4988598;28;20046;-64
2021/12/28 01:18:28;;;;;;;33.15;23.63;;;;;;;;;;4988854;28;20432;-64
2021/12/28 01:20:55;;;;;;;40.78;29.83;;;;;;;;;;4993990;28;20408;-64
2021/12/28 01:23:21;;;;;;;39.88;28.40;;;;;;;;;;4988665;28;20464;-63
2021/12/28 01:25:47;;;;;;;46.90;32.38;;;;;;;;;;4988432;28;20397;-64
2021/12/28 01:28:14;;;;;;;48.88;34.15;;;;;;;;;;4988918;28;20061;-63
2021/12/28 01:30:40;;;;;;;46.08;31.45;;;;;;;;;;4988861;28;20112;-63
2021/12/28 01:33:07;;;;;;;51.97;34.90;;;;;;;;;;4987392;28;20046;-63
2021/12/28 01:35:35;;;;;;;57.03;38.70;;;;;;;;;;4988026;28;20108;-63
2021/12/28 01:38:01;;;;;;;58.85;36.38;;;;;;;;;;4987230;28;20120;-63
2021/12/28 01:40:29;;;;;;;47.55;33.15;;;;;;;;;;4988389;28;20039;-63
2021/12/28 01:43:00;;;;;;;63.30;38.40;;;;;;;;;;4988857;28;20528;-63
2021/12/28 01:45:40;;;;;;;63.33;38.22;;;;;;;;;;4986888;28;20074;-64
2021/12/28 01:48:07;;;;;;;65.88;38.78;;;;;;;;;;4970455;28;20046;-64
2021/12/28 01:50:33;;;;;;;57.70;36.78;;;;;;;;;;4988330;28;20738;-64
2021/12/28 01:52:59;;;;;;;72.90;42.47;;;;;;;;;;4987984;28;20034;-63
2021/12/28 01:55:26;;;;;;;69.15;43.05;;;;;;;;;;4995058;28;20053;-63
2021/12/28 01:57:52;;;;;;;72.53;43.53;;;;;;;;;;4970334;28;20042;-63
2021/12/28 02:00:18;;;;;;;63.00;38.30;;;;;;;;;;4970790;28;20439;-63
2021/12/28 02:02:45;;;;;;;74.35;44.70;;;;;;;;;;4987321;28;20050;-63
2021/12/28 02:05:11;;;;;;;74.00;45.13;;;;;;;;;;4987696;28;20611;-63
2021/12/28 02:07:37;;;;;;;85.18;45.42;;;;;;;;;;4970336;28;20065;-64
2021/12/28 02:10:04;;;;;;;92.38;50.22;;;;;;;;;;4987451;28;20641;-63
2021/12/28 02:12:30;;;;;;;83.47;46.03;;;;;;;;;;4999534;28;20035;-63
2021/12/28 02:14:57;;;;;;;91.85;48.70;;;;;;;;;;4970950;28;20572;-63
2021/12/28 02:17:23;;;;;;;91.80;50.28;;;;;;;;;;4987302;28;20096;-64
2021/12/28 02:19:49;;;;;;;96.75;51.83;;;;;;;;;;4987300;28;20050;-64
2021/12/28 02:22:15;;;;;;;90.43;49.92;;;;;;;;;;4986680;28;20042;-63
2021/12/28 02:24:41;;;;;;;93.90;51.53;;;;;;;;;;4986049;28;20043;-64
2021/12/28 02:27:07;;;;;;;94.18;49.67;;;;;;;;;;4985983;28;20035;-63
2021/12/28 02:29:34;;;;;;;96.75;50.63;;;;;;;;;;4986775;28;20046;-63
2021/12/28 02:32:01;;;;;;;102.07;51.70;;;;;;;;;;4988258;28;20110;-63
2021/12/28 02:34:27;;;;;;;116.28;55.15;;;;;;;;;;4969590;28;20492;-64
2021/12/28 02:36:53;;;;;;;109.35;53.90;;;;;;;;;;4986258;28;20050;-63
2021/12/28 02:39:19;;;;;;;120.43;56.47;;;;;;;;;;4986064;28;20038;-63
2021/12/28 02:41:45;;;;;;;112.97;51.95;;;;;;;;;;4987341;28;20088;-63
2021/12/28 02:44:11;;;;;;;136.15;58.97;;;;;;;;;;4986753;28;20034;-62
2021/12/28 02:46:37;;;;;;;159.98;64.25;;;;;;;;;;4987351;28;20042;-63
2021/12/28 02:49:04;;;;;;;164.68;64.97;;;;;;;;;;4986429;28;20144;-63
2021/12/28 02:51:31;;;;;;;176.18;67.82;;;;;;;;;;4970741;28;20049;-63
2021/12/28 02:53:57;;;;;;;160.43;60.53;;;;;;;;;;4987008;28;20495;-62
2021/12/28 02:56:23;;;;;;;143.60;55.40;;;;;;;;;;4986594;28;20038;-62
2021/12/28 02:58:51;;;;;;;189.32;67.68;;;;;;;;;;4988345;28;20045;-63
2021/12/28 03:01:19;;;;;;;164.82;59.28;;;;;;;;;;4987586;28;20133;-62
2021/12/28 03:03:46;;;;;;;195.55;67.22;;;;;;;;;;4996071;28;20046;-63
2021/12/28 03:06:13;;;;;;;187.32;62.80;;;;;;;;;;4989503;28;20603;-62
2021/12/28 03:08:43;;;;;;;165.73;56.25;;;;;;;;;;4988114;28;20034;-62
2021/12/28 03:11:10;;;;;;;248.88;77.47;;;;;;;;;;4988362;28;20037;-62
2021/12/28 03:13:45;;;;;;;234.25;70.97;;;;;;;;;;4970890;28;20513;-62
2021/12/28 03:16:12;;;;;;;291.85;80.13;;;;;;;;;;4987777;28;20567;-62
2021/12/28 03:18:38;;;;;;;260.85;73.10;;;;;;;;;;4991894;28;20043;-62
2021/12/28 03:21:05;;;;;;;233.43;67.80;;;;;;;;;;4991645;28;20237;-64
2021/12/28 03:23:32;;;;;;;278.88;73.47;;;;;;;;;;4991565;28;20035;-62
2021/12/28 03:25:58;;;;;;;299.52;74.88;;;;;;;;;;4992878;28;20042;-62
2021/12/28 03:28:26;;;;;;;264.77;68.30;;;;;;;;;;4992853;28;20044;-62
2021/12/28 03:30:54;;;;;;;301.30;74.90;;;;;;;;;;4991265;28;20041;-62
2021/12/28 03:33:22;;;;;;;250.60;62.17;;;;;;;;;;4991625;28;20068;-63
2021/12/28 03:35:48;;;;;;;226.95;62.83;;;;;;;;;;4991259;28;20349;-62
2021/12/28 03:38:14;;;;;;;264.67;66.47;;;;;;;;;;4992644;28;20390;-62
2021/12/28 03:40:41;;;;;;;262.95;74.97;;;;;;;;;;4992512;28;20038;-62
2021/12/28 03:43:07;;;;;;;237.70;62.15;;;;;;;;;;4992331;28;20053;-64
2021/12/28 03:45:33;;;;;;;274.67;74.20;;;;;;;;;;4990649;28;20066;-63
2021/12/28 03:47:59;;;;;;;265.92;72.70;;;;;;;;;;4973935;28;20055;-64
2021/12/28 03:50:25;;;;;;;250.70;67.25;;;;;;;;;;4991084;28;20154;-64
2021/12/28 03:52:55;;;;;;;219.60;65.63;;;;;;;;;;5003140;28;20046;-64
2021/12/28 03:55:22;;;;;;;238.25;66.38;;;;;;;;;;4973164;28;20531;-63
2021/12/28 03:57:48;;;;;;;278.52;75.80;;;;;;;;;;4991720;28;20051;-63
2021/12/28 04:00:16;;;;;;;244.18;69.53;;;;;;;;;;4990781;28;20046;-63
2021/12/28 04:02:42;;;;;;;179.70;55.78;;;;;;;;;;4991638;28;20070;-63
2021/12/28 04:05:09;;;;;;;263.73;73.80;;;;;;;;;;4990142;28;20042;-63
2021/12/28 04:07:35;;;;;;;206.00;61.78;;;;;;;;;;4990296;28;20038;-64
2021/12/28 04:10:03;;;;;;;284.15;78.85;;;;;;;;;;4989897;28;20046;-64
2021/12/28 04:12:31;;;;;;;203.35;63.03;;;;;;;;;;4990724;28;20039;-63
2021/12/28 04:14:57;;;;;;;235.80;66.45;;;;;;;;;;4988985;28;20046;-63
2021/12/28 04:17:24;;;;;;;270.52;73.53;;;;;;;;;;4990937;28;20372;-63
2021/12/28 04:19:50;;;;;;;227.80;68.03;;;;;;;;;;4973738;28;20084;-63
2021/12/28 04:22:16;;;;;;;342.08;87.22;;;;;;;;;;4991500;28;20057;-63
2021/12/28 04:24:42;;;;;;;224.75;67.20;;;;;;;;;;4989785;28;20050;-63
2021/12/28 04:27:08;;;;;;;196.57;58.83;;;;;;;;;;4989546;28;20038;-63
2021/12/28 04:29:35;;;;;;;247.32;70.10;;;;;;;;;;4989272;28;20046;-63
2021/12/28 04:32:01;;;;;;;248.25;72.18;;;;;;;;;;4991322;28;20436;-63
2021/12/28 04:34:27;;;;;;;239.10;67.28;;;;;;;;;;4991170;28;20046;-62
2021/12/28 04:36:53;;;;;;;227.00;67.40;;;;;;;;;;4991258;28;20117;-63
2021/12/28 04:39:19;;;;;;;262.13;74.90;;;;;;;;;;4989738;28;20401;-63
2021/12/28 04:41:46;;;;;;;247.50;72.53;;;;;;;;;;4991060;28;20424;-62
2021/12/28 04:44:13;;;;;;;204.02;60.28;;;;;;;;;;4989058;28;20046;-63
2021/12/28 04:46:40;;;;;;;235.82;67.25;;;;;;;;;;4988983;28;20409;-63
2021/12/28 04:49:06;;;;;;;203.95;64.10;;;;;;;;;;4990066;28;20323;-63
2021/12/28 04:51:32;;;;;;;207.38;61.42;;;;;;;;;;4989296;28;20042;-62
2021/12/28 04:54:01;;;;;;;234.40;67.50;;;;;;;;;;4989954;28;20073;-62
2021/12/28 04:56:27;;;;;;;225.57;62.55;;;;;;;;;;4991087;28;20054;-63
2021/12/28 04:58:53;;;;;;;282.75;77.28;;;;;;;;;;4991258;28;20038;-63
2021/12/28 05:01:19;;;;;;;234.18;63.05;;;;;;;;;;4990703;28;20093;-62
2021/12/28 05:03:45;;;;;;;270.70;73.90;;;;;;;;;;4990259;28;20042;-63
2021/12/28 05:06:11;;;;;;;264.50;71.82;;;;;;;;;;4988283;28;20129;-63
2021/12/28 05:08:40;;;;;;;275.40;67.07;;;;;;;;;;4989219;28;20042;-63
2021/12/28 05:11:06;;;;;;;350.08;78.38;;;;;;;;;;4988411;28;20050;-63
2021/12/28 05:13:32;;;;;;;438.00;87.15;;;;;;;;;;4996709;28;20507;-63
2021/12/28 05:15:58;;;;;;;440.45;87.05;;;;;;;;;;4987777;28;20039;-63
2021/12/28 05:18:24;;;;;;;405.67;67.10;;;;;;;;;;4988703;28;20607;-62
2021/12/28 05:20:50;;;;;;;477.27;80.57;;;;;;;;;;4988864;28;20054;-61
2021/12/28 05:23:17;;;;;;;494.42;78.68;;;;;;;;;;4989529;28;20400;-61
2021/12/28 05:25:44;;;;;;;477.27;75.40;;;;;;;;;;4990818;28;20034;-62
2021/12/28 05:28:10;;;;;;;529.05;81.75;;;;;;;;;;4972442;28;20101;-63
2021/12/28 05:30:37;;;;;;;554.38;85.30;;;;;;;;;;4989885;28;20492;-63
2021/12/28 05:33:03;;;;;;;509.75;71.95;;;;;;;;;;4990075;28;20034;-62
2021/12/28 05:35:29;;;;;;;560.17;77.53;;;;;;;;;;4989911;28;20046;-63
2021/12/28 05:37:55;;;;;;;439.55;63.97;;;;;;;;;;4990064;28;20038;-62
2021/12/28 05:40:22;;;;;;;475.30;67.60;;;;;;;;;;4989636;28;20492;-63
2021/12/28 05:42:48;;;;;;;511.20;84.45;;;;;;;;;;4989715;28;20554;-63
2021/12/28 05:45:14;;;;;;;522.55;85.75;;;;;;;;;;4988682;28;20677;-63
2021/12/28 05:47:40;;;;;;;480.45;78.38;;;;;;;;;;4989178;28;20045;-62
2021/12/28 05:50:07;;;;;;;448.63;74.00;;;;;;;;;;4989124;28;20069;-62
2021/12/28 05:52:33;;;;;;;519.28;75.80;;;;;;;;;;4989485;28;20038;-62
2021/12/28 05:54:59;;;;;;;483.83;76.95;;;;;;;;;;4988180;28;20092;-62
2021/12/28 05:57:25;;;;;;;573.75;84.68;;;;;;;;;;4996186;28;20069;-62
2021/12/28 05:59:52;;;;;;;525.60;76.45;;;;;;;;;;4987264;28;20481;-63
2021/12/28 06:02:19;;;;;;;400.33;70.78;;;;;;;;;;4986559;28;20046;-63
2021/12/28 06:04:45;;;;;;;431.10;71.28;;;;;;;;;;4988731;28;20423;-64
2021/12/28 06:07:11;;;;;;;415.65;73.22;;;;;;;;;;4987938;28;20077;-63
2021/12/28 06:09:37;;;;;;;354.33;64.63;;;;;;;;;;4987470;28;20042;-63
2021/12/28 06:12:06;;;;;;;380.20;68.30;;;;;;;;;;4986565;28;20076;-64
2021/12/28 06:14:33;;;;;;;269.30;56.45;;;;;;;;;;4981411;28;20097;-64
2021/12/28 06:16:59;;;;;;;270.52;56.53;;;;;;;;;;4987721;28;20081;-63
2021/12/28 06:19:26;;;;;;;269.50;55.35;;;;;;;;;;5003011;28;20058;-62
2021/12/28 06:21:52;;;;;;;310.95;61.65;;;;;;;;;;4986997;28;20125;-62
2021/12/28 06:24:18;;;;;;;306.00;64.97;;;;;;;;;;4988277;28;20050;-63
2021/12/28 06:26:44;;;;;;;276.33;63.28;;;;;;;;;;4986270;28;20145;-64
2021/12/28 06:29:11;;;;;;;200.88;52.83;;;;;;;;;;4990839;28;20045;-63
2021/12/28 06:31:39;;;;;;;176.80;50.25;;;;;;;;;;4987210;28;20053;-63
2021/12/28 06:34:07;;;;;;;171.25;52.00;;;;;;;;;;4988093;28;20049;-64
2021/12/28 06:36:33;;;;;;;168.65;55.08;;;;;;;;;;4970729;28;20525;-63
2021/12/28 06:38:59;;;;;;;170.23;54.80;;;;;;;;;;4986312;28;20050;-64
2021/12/28 06:41:25;;;;;;;157.68;50.92;;;;;;;;;;5002540;28;20046;-63
2021/12/28 06:43:51;;;;;;;142.10;47.45;;;;;;;;;;4985776;28;20050;-63
2021/12/28 06:46:18;;;;;;;148.85;51.67;;;;;;;;;;4988319;28;20173;-63
2021/12/28 06:48:44;;;;;;;135.50;48.70;;;;;;;;;;4989351;28;20064;-62
2021/12/28 06:51:11;;;;;;;142.95;50.65;;;;;;;;;;4986695;28;20140;-63
2021/12/28 06:53:37;;;;;;;120.82;48.50;;;;;;;;;;4987687;28;20172;-63
2021/12/28 06:56:05;;;;;;;129.48;48.75;;;;;;;;;;4977986;28;20056;-63
2021/12/28 06:58:31;;;;;;;111.32;46.42;;;;;;;;;;4986243;28;20049;-63
2021/12/28 07:00:58;;;;;;;137.40;49.55;;;;;;;;;;4987651;28;20046;-63
2021/12/28 07:03:24;;;;;;;118.40;49.20;;;;;;;;;;4988461;28;20065;-63
2021/12/28 07:05:50;;;;;;;121.35;52.67;;;;;;;;;;4984754;28;20686;-63
2021/12/28 07:08:16;;;;;;;114.15;47.05;;;;;;;;;;4987466;28;20058;-64
2021/12/28 07:10:43;;;;;;;123.50;49.95;;;;;;;;;;4987131;28;20042;-63
2021/12/28 07:13:09;;;;;;;133.85;52.38;;;;;;;;;;4986678;28;20049;-63
2021/12/28 07:15:35;;;;;;;130.63;50.85;;;;;;;;;;4986526;28;20080;-63
2021/12/28 07:18:02;;;;;;;115.93;48.75;;;;;;;;;;4987305;28;20108;-63
2021/12/28 07:20:28;;;;;;;100.30;44.58;;;;;;;;;;4986903;28;20420;-63
2021/12/28 07:22:54;;;;;;;94.05;41.83;;;;;;;;;;4987110;28;20046;-64
2021/12/28 07:25:20;;;;;;;91.68;39.58;;;;;;;;;;4985666;28;20034;-64
2021/12/28 07:27:46;;;;;;;91.38;42.53;;;;;;;;;;4987716;28;20042;-63
2021/12/28 07:30:13;;;;;;;85.97;41.53;;;;;;;;;;4968172;28;20078;-63
2021/12/28 07:32:40;;;;;;;80.07;40.58;;;;;;;;;;4985693;28;20467;-63
2021/12/28 07:35:07;;;;;;;76.05;40.83;;;;;;;;;;4986790;28;20373;-63
2021/12/28 07:37:33;;;;;;;70.35;38.47;;;;;;;;;;4988279;28;20046;-64
2021/12/28 07:39:59;;;;;;;69.57;38.78;;;;;;;;;;5002255;28;20050;-64
2021/12/28 07:42:25;;;;;;;80.82;40.60;;;;;;;;;;4987639;28;20484;-63
2021/12/28 07:44:51;;;;;;;81.13;39.13;;;;;;;;;;4987336;28;20120;-63
2021/12/28 07:47:18;;;;;;;65.13;36.50;;;;;;;;;;4987904;28;20512;-63
2021/12/28 07:49:44;;;;;;;67.15;37.17;;;;;;;;;;4987323;28;20122;-63
2021/12/28 07:52:10;;;;;;;57.22;34.13;;;;;;;;;;4988137;28;20054;-63
2021/12/28 07:54:36;;;;;;;65.53;34.70;;;;;;;;;;4969876;28;20035;-64
2021/12/28 07:57:02;;;;;;;59.72;34.97;;;;;;;;;;4991890;28;20381;-63
2021/12/28 07:59:28;;;;;;;60.60;32.45;;;;;;;;;;4986534;28;20567;-63
2021/12/28 08:01:55;;;;;;;57.70;33.03;;;;;;;;;;4986763;28;20069;-63
2021/12/28 08:04:21;;;;;;;57.28;32.35;;;;;;;;;;4988029;28;20043;-63
2021/12/28 08:06:47;;;;;;;51.70;29.60;;;;;;;;;;4989570;28;20065;-63
2021/12/28 08:09:13;;;;;;;59.92;34.10;;;;;;;;;;4990869;28;20038;-63
2021/12/28 08:11:39;;;;;;;50.65;29.30;;;;;;;;;;4991071;28;20041;-63
2021/12/28 08:14:05;;;;;;;60.45;31.92;;;;;;;;;;4991999;28;20039;-63
2021/12/28 08:16:31;;;;;;;51.88;29.42;;;;;;;;;;4989689;28;20042;-64
2021/12/28 08:18:58;;;;;;;53.10;29.17;;;;;;;;;;4990343;28;20145;-63
2021/12/28 08:21:24;;;;;;;49.70;27.38;;;;;;;;;;4971899;28;20054;-64
2021/12/28 08:23:50;;;;;;;51.10;27.20;;;;;;;;;;4990781;28;20046;-65
2021/12/28 08:26:16;;;;;;;43.78;24.13;;;;;;;;;;4987448;28;20385;-64
2021/12/28 08:28:43;;;;;;;41.00;23.67;;;;;;;;;;4995949;28;20045;-63
2021/12/28 08:31:09;;;;;;;46.33;23.00;;;;;;;;;;4990631;28;20034;-64
2021/12/28 08:33:35;;;;;;;36.67;19.70;;;;;;;;;;4990811;28;20388;-63
2021/12/28 08:36:07;;;;;;;40.55;21.67;;;;;;;;;;4989649;28;20515;-64
2021/12/28 08:38:33;;;;;;;35.45;19.30;;;;;;;;;;4990359;28;20125;-65
2021/12/28 08:41:00;;;;;;;38.83;19.25;;;;;;;;;;4988946;28;20042;-64
2021/12/28 08:43:26;;;;;;;32.05;18.48;;;;;;;;;;4990117;28;20034;-63
2021/12/28 08:45:52;;;;;;;35.00;16.83;;;;;;;;;;4989763;28;20762;-62
2021/12/28 08:48:19;;;;;;;31.75;17.50;;;;;;;;;;4989239;28;20047;-63
2021/12/28 08:50:45;;;;;;;29.55;15.88;;;;;;;;;;4989541;28;20429;-63
2021/12/28 08:53:11;;;;;;;29.08;16.30;;;;;;;;;;4991729;28;20046;-64
2021/12/28 08:55:43;;;;;;;27.23;14.57;;;;;;;;;;4990786;28;20069;-63
2021/12/28 08:58:09;;;;;;;26.17;14.80;;;;;;;;;;4991708;28;20097;-63
2021/12/28 09:00:38;;;;;;;39.35;15.25;;;;;;;;;;4990922;28;20050;-63
2021/12/28 09:03:04;;;;;;;27.98;15.10;;;;;;;;;;4991009;28;20054;-65
2021/12/28 09:05:32;;;;;;;22.30;12.00;;;;;;;;;;4989299;28;20101;-63
2021/12/28 09:07:59;;;;;;;27.30;12.98;;;;;;;;;;4991077;28;20074;-63
2021/12/28 09:10:26;;;;;;;26.42;13.30;;;;;;;;;;4973738;28;20049;-63
2021/12/28 09:12:53;;;;;;;24.00;13.65;;;;;;;;;;4989591;28;20381;-63
2021/12/28 09:15:19;;;;;;;27.50;12.40;;;;;;;;;;4988788;28;20061;-64
2021/12/28 09:17:45;;;;;;;27.25;12.15;;;;;;;;;;4990590;28;20051;-64
2021/12/28 09:20:13;;;;;;;29.70;12.52;;;;;;;;;;4989320;28;20084;-64
2021/12/28 09:22:39;;;;;;;29.35;12.18;;;;;;;;;;4989893;28;20053;-63
2021/12/28 09:25:06;;;;;;;27.33;11.27;;;;;;;;;;4989933;28;20109;-63
2021/12/28 09:27:32;;;;;;;29.00;11.23;;;;;;;;;;4989341;28;20038;-63
2021/12/28 09:29:58;;;;;;;27.98;10.45;;;;;;;;;;4990767;28;20169;-65
2021/12/28 09:32:24;;;;;;;22.17;8.77;;;;;;;;;;4987142;28;20087;-64
2021/12/28 09:34:51;;;;;;;20.20;9.02;;;;;;;;;;4989330;28;20080;-64
2021/12/28 09:37:19;;;;;;;20.98;8.50;;;;;;;;;;4989393;28;20038;-64
2021/12/28 09:39:48;;;;;;;23.25;7.63;;;;;;;;;;4990971;28;20053;-63
2021/12/28 09:42:15;;;;;;;21.80;7.97;;;;;;;;;;4990799;28;20072;-64
2021/12/28 09:44:41;;;;;;;26.67;8.48;;;;;;;;;;4989621;28;20041;-64
2021/12/28 09:47:08;;;;;;;21.40;6.78;;;;;;;;;;4996888;28;20053;-64
2021/12/28 09:49:34;;;;;;;21.55;7.53;;;;;;;;;;4990258;28;20074;-64
2021/12/28 09:52:01;;;;;;;23.45;8.07;;;;;;;;;;4988820;28;20053;-64
2021/12/28 09:54:28;;;;;;;24.35;7.65;;;;;;;;;;4990410;28;20078;-64
2021/12/28 09:56:56;;;;;;;18.58;6.88;;;;;;;;;;4988832;28;20058;-65
2021/12/28 09:59:22;;;;;;;20.15;6.43;;;;;;;;;;4991547;28;20153;-64
2021/12/28 10:01:49;;;;;;;23.13;6.78;;;;;;;;;;4990931;28;20050;-64
2021/12/28 10:04:16;;;;;;;18.15;6.00;;;;;;;;;;5005016;28;20117;-63
2021/12/28 10:06:43;;;;;;;14.63;5.57;;;;;;;;;;4989939;28;20042;-63
2021/12/28 10:09:17;;;;;;;20.23;6.10;;;;;;;;;;4988145;28;20085;-63
2021/12/28 10:11:48;;;;;;;21.40;6.05;;;;;;;;;;4990726;28;20381;-64
2021/12/28 10:14:14;;;;;;;13.20;4.68;;;;;;;;;;4988150;28;20054;-63
2021/12/28 10:16:48;;;;;;;22.30;5.20;;;;;;;;;;4988343;28;20404;-62
2021/12/28 10:19:29;;;;;;;16.58;5.35;;;;;;;;;;4985813;28;20412;-62
2021/12/28 10:22:18;;;;;;;22.77;6.05;;;;;;;;;;4990136;28;20048;-62
2021/12/28 10:24:44;;;;;;;21.10;5.45;;;;;;;;;;4988673;28;20054;-62
2021/12/28 10:27:14;;;;;;;19.73;5.10;;;;;;;;;;5004309;28;20126;-62
2021/12/28 10:29:40;;;;;;;16.90;5.75;;;;;;;;;;4990057;28;20066;-62
2021/12/28 10:32:20;;;;;;;17.77;5.35;;;;;;;;;;4989590;28;20038;-62
2021/12/28 10:34:48;;;;;;;23.10;6.05;;;;;;;;;;4988757;28;20488;-62
2021/12/28 10:37:25;;;;;;;22.85;5.38;;;;;;;;;;4989282;28;20527;-62
2021/12/28 10:39:54;;;;;;;19.10;5.55;;;;;;;;;;4988166;28;20129;-63
2021/12/28 10:42:39;;;;;;;19.83;5.30;;;;;;;;;;4987583;28;20054;-63
2021/12/28 10:45:07;;;;;;;20.58;4.57;;;;;;;;;;4989402;28;20042;-63
2021/12/28 10:47:33;;;;;;;18.60;4.85;;;;;;;;;;4988604;28;20126;-62
2021/12/28 10:50:07;;;;;;;18.80;5.22;;;;;;;;;;4987990;28;20038;-63
2021/12/28 10:52:38;;;;;;;19.15;5.22;;;;;;;;;;4989490;28;20049;-63
2021/12/28 10:55:25;;;;;;;22.23;5.20;;;;;;;;;;4988312;28;20448;-63
2021/12/28 10:57:51;;;;;;;21.40;5.15;;;;;;;;;;4989262;28;20128;-63
2021/12/28 11:00:25;;;;;;;19.50;5.28;;;;;;;;;;4989745;28;20097;-63
2021/12/28 11:02:53;;;;;;;18.75;5.10;;;;;;;;;;4986198;28;20092;-63
2021/12/28 11:05:33;;;;;;;21.48;5.05;;;;;;;;;;4987484;28;20078;-62
2021/12/28 11:08:01;;;;;;;18.08;5.03;;;;;;;;;;4988137;28;20053;-62
2021/12/28 11:10:28;;;;;;;19.45;4.97;;;;;;;;;;4986267;28;20054;-63
2021/12/28 11:12:55;;;;;;;17.15;4.70;;;;;;;;;;4988078;28;20097;-63
2021/12/28 11:15:25;;;;;;;20.33;5.40;;;;;;;;;;4988530;28;20046;-63
2021/12/28 11:17:51;;;;;;;18.67;4.82;;;;;;;;;;4989101;28;20535;-63
2021/12/28 11:20:28;;;;;;;21.05;5.00;;;;;;;;;;5004729;28;20121;-63
2021/12/28 11:23:11;;;;;;;21.40;5.80;;;;;;;;;;4989923;28;20541;-63
2021/12/28 11:25:37;;;;;;;22.38;6.22;;;;;;;;;;4988793;28;20042;-63
2021/12/28 11:28:17;;;;;;;18.77;5.65;;;;;;;;;;4989846;28;20113;-63
2021/12/28 11:31:03;;;;;;;21.20;5.93;;;;;;;;;;4992820;28;20062;-63
2021/12/28 11:34:04;;;;;;;23.10;6.38;;;;;;;;;;4988838;28;20084;-63
2021/12/28 11:36:32;;;;;;;24.15;7.00;;;;;;;;;;4971355;28;20116;-64
2021/12/28 11:38:59;;;;;;;20.95;6.47;;;;;;;;;;5001404;28;20058;-64
2021/12/28 11:41:26;;;;;;;23.38;7.68;;;;;;;;;;4975120;28;20089;-65
2021/12/28 11:43:53;;;;;;;21.52;8.10;;;;;;;;;;4990837;28;20096;-64
2021/12/28 11:46:19;;;;;;;22.90;8.30;;;;;;;;;;4990851;28;20507;-64
2021/12/28 11:48:46;;;;;;;19.33;7.20;;;;;;;;;;4990908;28;20046;-64
2021/12/28 11:51:13;;;;;;;16.17;6.82;;;;;;;;;;4990580;28;20039;-64
2021/12/28 11:53:41;;;;;;;23.25;8.88;;;;;;;;;;4990776;28;20054;-63
2021/12/28 11:56:09;;;;;;;27.20;11.23;;;;;;;;;;4990892;28;20038;-64
2021/12/28 11:58:51;;;;;;;24.15;9.40;;;;;;;;;;4990726;28;20121;-64
2021/12/28 12:01:36;;;;;;;23.33;8.10;;;;;;;;;;4990814;28;20042;-64
2021/12/28 12:04:02;;;;;;;27.05;12.82;;;;;;;;;;4989850;28;20524;-64
2021/12/28 12:06:47;;;;;;;21.80;10.70;;;;;;;;;;4990278;28;20251;-65
2021/12/28 12:09:13;;;;;;;34.05;15.45;;;;;;;;;;4990339;28;20451;-64
2021/12/28 12:11:58;;;;;;;27.15;14.95;;;;;;;;;;4990921;28;20212;-64
2021/12/28 12:14:44;;;;;;;23.58;12.45;;;;;;;;;;5004780;28;20512;-63
2021/12/28 12:17:34;;;;;;;36.03;17.95;;;;;;;;;;4990048;28;20046;-63
2021/12/28 12:20:22;;;;;;;41.72;18.88;;;;;;;;;;4990357;28;20117;-63
2021/12/28 12:22:48;;;;;;;34.17;16.23;;;;;;;;;;4991894;28;20048;-63
2021/12/28 12:25:16;;;;;;;24.83;13.65;;;;;;;;;;4996861;28;20531;-64
2021/12/28 12:27:53;;;;;;;22.77;11.93;;;;;;;;;;4991574;28;20489;-63
2021/12/28 12:30:19;;;;;;;31.08;17.27;;;;;;;;;;4991311;28;20579;-64
2021/12/28 12:32:57;;;;;;;32.85;17.67;;;;;;;;;;5004048;28;20536;-64
2021/12/28 12:35:30;;;;;;;31.50;17.80;;;;;;;;;;4990178;28;20046;-63
2021/12/28 12:37:57;;;;;;;32.08;18.52;;;;;;;;;;4974095;28;20046;-63
2021/12/28 12:40:43;;;;;;;32.25;16.20;;;;;;;;;;4974857;28;20054;-63
2021/12/28 12:43:10;;;;;;;30.27;18.10;;;;;;;;;;4991307;28;20065;-63
2021/12/28 12:45:52;;;;;;;42.00;19.73;;;;;;;;;;4990382;28;20081;-63
2021/12/28 12:48:35;;;;;;;30.88;18.23;;;;;;;;;;4974715;28;20436;-63
2021/12/28 12:51:20;;;;;;;31.38;15.65;;;;;;;;;;4989878;28;20456;-63
2021/12/28 12:53:48;;;;;;;28.95;18.48;;;;;;;;;;4991867;28;20046;-62
2021/12/28 12:56:16;;;;;;;31.38;16.88;;;;;;;;;;4990878;28;21264;-64
2021/12/28 12:58:45;;;;;;;29.00;17.42;;;;;;;;;;4989652;28;20110;-62
2021/12/28 13:01:27;;;;;;;31.17;18.30;;;;;;;;;;4990561;28;20101;-62
2021/12/28 13:03:58;;;;;;;31.25;17.63;;;;;;;;;;4990248;28;20038;-62
2021/12/28 13:06:42;;;;;;;27.08;15.90;;;;;;;;;;4989728;28;20062;-63
2021/12/28 13:09:13;;;;;;;24.73;14.05;;;;;;;;;;4989568;28;20049;-61
2021/12/28 13:11:40;;;;;;;22.42;14.27;;;;;;;;;;4973873;28;20050;-62
2021/12/28 13:14:06;;;;;;;31.13;17.08;;;;;;;;;;4991740;28;20049;-62
2021/12/28 13:16:33;;;;;;;28.77;15.55;;;;;;;;;;4991485;28;20046;-62
2021/12/28 13:19:12;;;;;;;26.02;15.70;;;;;;;;;;4989717;28;20061;-61
2021/12/28 13:21:39;;;;;;;24.05;15.13;;;;;;;;;;4991443;28;20049;-62
2021/12/28 13:24:09;;;;;;;25.30;16.90;;;;;;;;;;4991813;28;20049;-61
2021/12/28 13:26:45;;;;;;;26.05;16.90;;;;;;;;;;4991474;28;20198;-63
2021/12/28 13:29:12;;;;;;;27.50;15.88;;;;;;;;;;4991571;28;20165;-62
2021/12/28 13:31:38;;;;;;;28.33;18.17;;;;;;;;;;4989601;28;20039;-62
2021/12/28 13:34:04;;;;;;;27.52;19.65;;;;;;;;;;4973608;28;20072;-62
2021/12/28 13:36:30;;;;;;;28.58;19.60;;;;;;;;;;4990984;28;20145;-63
2021/12/28 13:39:06;;;;;;;28.92;20.35;;;;;;;;;;4989286;28;20049;-63
2021/12/28 13:41:32;;;;;;;32.45;22.90;;;;;;;;;;4988765;28;20050;-63
2021/12/28 13:44:03;;;;;;;26.08;20.52;;;;;;;;;;4989198;28;20944;-63
2021/12/28 13:46:29;;;;;;;34.97;23.80;;;;;;;;;;4988068;28;20421;-63
2021/12/28 13:48:58;;;;;;;190.55;34.03;;;;;;;;;;4990117;28;20476;-62
2021/12/28 13:51:24;;;;;;;50.63;32.80;;;;;;;;;;4990752;28;20042;-62
2021/12/28 13:53:52;;;;;;;54.08;27.73;;;;;;;;;;4991083;28;20509;-62
2021/12/28 13:56:23;;;;;;;37.40;27.63;;;;;;;;;;4987751;28;20551;-63
2021/12/28 13:58:50;;;;;;;36.85;26.08;;;;;;;;;;4989285;28;20034;-62
2021/12/28 14:01:19;;;;;;;36.67;24.95;;;;;;;;;;4988406;28;20046;-62
2021/12/28 14:04:03;;;;;;;31.80;23.85;;;;;;;;;;4989632;28;20040;-62
2021/12/28 14:06:30;;;;;;;89.45;27.50;;;;;;;;;;4989123;28;20480;-62
2021/12/28 14:08:56;;;;;;;39.95;24.55;;;;;;;;;;4981976;28;20073;-63
2021/12/28 14:11:30;;;;;;;33.13;23.52;;;;;;;;;;4992402;28;20042;-62
2021/12/28 14:13:56;;;;;;;38.65;29.23;;;;;;;;;;4987691;28;20030;-62
2021/12/28 14:16:22;;;;;;;32.38;24.50;;;;;;;;;;4987815;28;20416;-63
2021/12/28 14:18:51;;;;;;;35.22;25.63;;;;;;;;;;4987829;28;20448;-62
2021/12/28 14:21:17;;;;;;;32.22;23.70;;;;;;;;;;4987290;28;20038;-62